This is the latest recevied weather packets stored in our database for station/object MB7UUE. If no packets are shown the sender has not sent any weather packets the latest 10 day(s).
| Time | Temp. | Humidity | Pressure | Rain* | Wind** | Luminosity | Snow |
|---|---|---|---|---|---|---|---|
| 1777642379 | 22.78° C | 36% | 1019.4 hPa | 0 mm | - | - | - |
| 1777641239 | 22.22° C | 36% | 1019.5 hPa | 0 mm | - | - | - |
| 1777640099 | 22.22° C | 36% | 1019.5 hPa | 0 mm | - | - | - |
| 1777638960 | 21.67° C | 36% | 1019.6 hPa | 0 mm | - | - | - |
| 1777637818 | 21.67° C | 37% | 1019.7 hPa | 0 mm | - | - | - |
| 1777636679 | 21.11° C | 37% | 1020 hPa | 0 mm | - | - | - |
| 1777635539 | 21.11° C | 36% | 1020.1 hPa | 0 mm | - | - | - |
| 1777634398 | 20.56° C | 37% | 1020.1 hPa | 0 mm | - | - | - |
| 1777633259 | 20° C | 39% | 1020.2 hPa | 0 mm | - | - | - |
| 1777632119 | 19.44° C | 39% | 1020.6 hPa | 0 mm | - | - | - |
| 1777630978 | 18.89° C | 39% | 1020.6 hPa | 0 mm | - | - | - |
| 1777629838 | 18.89° C | 39% | 1020.8 hPa | 0 mm | - | - | - |
| 1777628698 | 18.33° C | 40% | 1020.9 hPa | 0 mm | - | - | - |
| 1777627559 | 17.78° C | 41% | 1020.9 hPa | 0 mm | - | - | - |
| 1777626418 | 17.22° C | 40% | 1021.1 hPa | 0 mm | - | - | - |
| 1777625279 | 16.67° C | 40% | 1021.1 hPa | 0 mm | - | - | - |
| 1777624139 | 16.67° C | 40% | 1021.1 hPa | 0 mm | - | - | - |
| 1777622999 | 16.11° C | 41% | 1021.2 hPa | 0 mm | - | - | - |
| 1777621859 | 15.56° C | 43% | 1021.2 hPa | 0 mm | - | - | - |
| 1777621093 | 15° C | 46% | 1021.1 hPa | 0 mm | - | - | - |
| 1777620720 | 15° C | 46% | 1021.1 hPa | 0 mm | - | - | - |
| 1777619579 | 14.44° C | 53% | 1020.7 hPa | 0 mm | - | - | - |
| 1777618847 | 13.89° C | 53% | 1020.7 hPa | 0 mm | - | - | - |
| 1777618438 | 13.89° C | 53% | 1020.7 hPa | 0 mm | - | - | - |
| 1777617299 | 13.33° C | 56% | 1020.7 hPa | 0 mm | - | - | - |
* Rain latest hour (hover to see other rain measurements)
** Current wind speed in m/s (hover to see current wind gust speed)